Time,TemperatureF,DewpointF,PressureIn,WindDirection,WindDirectionDegrees,WindSpeedMPH,WindSpeedGustMPH,Humidity,HourlyPrecipIn,Conditions,Clouds,dailyrainin,SolarRadiationWatts/m^2,SoftwareType,DateUTC
2013-05-24 00:01:00,61.6,59.3,29.68,SSW,192,0.0,0.0,92,0.00,,,0.00,0,Wunderground v.1.15,2013-05-24 04:01:00,
2013-05-24 00:02:00,61.6,59.3,29.68,SSW,192,0.0,0.0,92,0.00,,,0.00,0,Wunderground v.1.15,2013-05-24 04:02:00,
2013-05-24 00:03:00,61.6,59.3,29.68,SSW,192,0.0,0.0,92,0.00,,,0.00,0,Wunderground v.1.15,2013-05-24 04:03:00,
2013-05-24 00:08:00,61.5,59.2,29.68,SSW,192,0.0,0.0,92,0.00,,,0.00,0,Wunderground v.1.15,2013-05-24 04:08:00,
2013-05-24 00:13:00,61.6,59.3,29.68,SSW,192,0.0,0.0,92,0.00,,,0.00,0,Wunderground v.1.15,2013-05-24 04:13:00,
2013-05-24 00:18:00,61.5,59.2,29.68,SSW,192,0.0,0.0,92,0.00,,,0.00,0,Wunderground v.1.15,2013-05-24 04:18:00,
2013-05-24 00:24:00,61.5,59.2,29.68,SSW,192,0.0,0.0,92,0.00,,,0.00,0,Wunderground v.1.15,2013-05-24 04:24:00,
2013-05-24 00:30:00,61.5,59.5,29.68,SSW,192,0.0,0.0,93,0.00,,,0.00,0,Wunderground v.1.15,2013-05-24 04:30:00,
2013-05-24 00:36:00,61.3,59.3,29.68,SSW,192,0.0,0.0,93,0.00,,,0.00,0,Wunderground v.1.15,2013-05-24 04:36:00,
2013-05-24 00:41:00,61.3,59.3,29.68,SSW,192,0.0,0.0,93,0.00,,,0.00,0,Wunderground v.1.15,2013-05-24 04:41:00,
2013-05-24 00:47:00,61.3,59.3,29.68,SSW,192,0.0,0.0,93,0.00,,,0.00,0,Wunderground v.1.15,2013-05-24 04:47:00,
2013-05-24 00:52:00,61.2,59.2,29.68,SSW,192,0.0,0.0,93,0.00,,,0.00,0,Wunderground v.1.15,2013-05-24 04:52:00,
2013-05-24 00:58:00,61.2,59.2,29.68,SSW,192,0.0,0.0,93,0.00,,,0.00,0,Wunderground v.1.15,2013-05-24 04:58:00,
2013-05-24 01:04:00,61.2,59.2,29.67,SSW,192,0.0,0.0,93,0.00,,,0.00,0,Wunderground v.1.15,2013-05-24 05:04:00,
2013-05-24 01:11:00,61.2,59.2,29.67,SSW,192,0.0,0.0,93,0.00,,,0.00,0,Wunderground v.1.15,2013-05-24 05:11:00,
2013-05-24 01:16:00,61.0,59.0,29.67,SSW,192,0.0,0.0,93,0.00,,,0.00,0,Wunderground v.1.15,2013-05-24 05:16:00,
2013-05-24 01:22:00,61.0,59.0,29.67,SSW,192,0.0,0.0,93,0.00,,,0.00,0,Wunderground v.1.15,2013-05-24 05:22:00,
2013-05-24 01:28:00,61.0,59.0,29.67,SSW,192,0.0,0.0,93,0.00,,,0.00,0,Wunderground v.1.15,2013-05-24 05:28:00,
2013-05-24 01:33:00,61.0,59.0,29.67,SSW,192,0.0,0.0,93,0.00,,,0.00,0,Wunderground v.1.15,2013-05-24 05:33:00,
2013-05-24 01:39:00,61.0,59.0,29.67,SSW,192,0.0,0.0,93,0.00,,,0.00,0,Wunderground v.1.15,2013-05-24 05:39:00,
2013-05-24 01:45:00,61.0,59.0,29.66,SSW,192,0.0,0.0,93,0.00,,,0.00,0,Wunderground v.1.15,2013-05-24 05:45:00,
2013-05-24 01:51:00,61.0,59.0,29.66,SSW,192,0.0,0.0,93,0.00,,,0.00,0,Wunderground v.1.15,2013-05-24 05:51:00,
2013-05-24 01:56:00,61.2,59.2,29.66,SSW,192,0.0,0.0,93,0.00,,,0.00,0,Wunderground v.1.15,2013-05-24 05:56:00,
2013-05-24 02:02:00,61.2,59.2,29.66,SSW,192,0.0,0.0,93,0.00,,,0.00,0,Wunderground v.1.15,2013-05-24 06:02:00,
2013-05-24 02:08:00,61.2,59.2,29.66,SSW,192,0.0,0.0,93,0.00,,,0.00,0,Wunderground v.1.15,2013-05-24 06:08:00,
2013-05-24 02:13:00,61.2,59.2,29.66,SSW,192,0.0,0.0,93,0.00,,,0.00,0,Wunderground v.1.15,2013-05-24 06:13:00,
2013-05-24 02:19:00,61.2,59.2,29.65,SSW,192,0.0,0.0,93,0.00,,,0.00,0,Wunderground v.1.15,2013-05-24 06:19:00,
2013-05-24 02:25:00,61.2,59.2,29.65,SSW,192,0.0,0.0,93,0.00,,,0.00,0,Wunderground v.1.15,2013-05-24 06:25:00,
2013-05-24 02:31:00,61.2,59.2,29.65,SSW,192,0.0,0.0,93,0.00,,,0.00,0,Wunderground v.1.15,2013-05-24 06:31:00,
2013-05-24 02:36:00,61.2,59.2,29.65,SSW,192,0.0,0.0,93,0.00,,,0.00,0,Wunderground v.1.15,2013-05-24 06:36:00,
2013-05-24 02:42:00,61.2,59.2,29.65,SSW,192,0.0,0.0,93,0.00,,,0.00,0,Wunderground v.1.15,2013-05-24 06:42:00,
2013-05-24 02:48:00,61.2,59.5,29.65,SSW,192,0.0,0.0,94,0.00,,,0.00,0,Wunderground v.1.15,2013-05-24 06:48:00,
2013-05-24 02:53:00,61.2,59.5,29.65,SSW,192,0.0,0.0,94,0.00,,,0.00,0,Wunderground v.1.15,2013-05-24 06:53:00,
2013-05-24 02:59:00,61.2,59.5,29.64,SSW,192,0.0,0.0,94,0.00,,,0.00,0,Wunderground v.1.15,2013-05-24 06:59:00,
2013-05-24 03:04:00,61.2,59.5,29.64,SSW,192,0.0,2.0,94,0.00,,,0.00,0,Wunderground v.1.15,2013-05-24 07:04:00,
2013-05-24 03:10:00,60.5,58.5,29.64,SSW,195,0.0,0.0,93,0.00,,,0.00,0,Wunderground v.1.15,2013-05-24 07:10:00,
2013-05-24 03:15:00,59.9,57.9,29.65,SSW,193,0.0,0.0,93,0.00,,,0.00,0,Wunderground v.1.15,2013-05-24 07:15:00,
2013-05-24 03:21:00,59.5,57.5,29.65,ENE,57,0.0,0.0,93,0.00,,,0.00,0,Wunderground v.1.15,2013-05-24 07:21:00,
2013-05-24 03:26:00,59.0,57.0,29.65,East,94,0.0,1.0,93,0.00,,,0.00,0,Wunderground v.1.15,2013-05-24 07:26:00,
2013-05-24 03:32:00,58.4,56.4,29.65,SW,236,0.0,0.0,93,0.00,,,0.01,0,Wunderground v.1.15,2013-05-24 07:32:00,
2013-05-24 03:37:00,58.0,56.0,29.65,NE,53,0.0,2.0,93,0.00,,,0.01,0,Wunderground v.1.15,2013-05-24 07:37:00,
2013-05-24 03:43:00,57.5,55.5,29.65,NE,45,0.0,1.0,93,0.05,,,0.02,0,Wunderground v.1.15,2013-05-24 07:43:00,
2013-05-24 03:48:00,57.2,55.2,29.65,South,173,1.0,1.0,93,0.05,,,0.02,0,Wunderground v.1.15,2013-05-24 07:48:00,
2013-05-24 03:54:00,57.0,55.0,29.65,SSE,165,0.0,1.0,93,0.04,,,0.02,0,Wunderground v.1.15,2013-05-24 07:54:00,
2013-05-24 04:00:00,56.7,54.7,29.65,ENE,58,0.0,0.0,93,0.00,,,0.03,0,Wunderground v.1.15,2013-05-24 08:00:00,
2013-05-24 04:06:00,56.3,54.3,29.65,ESE,103,1.0,7.0,93,0.00,,,0.03,0,Wunderground v.1.15,2013-05-24 08:06:00,
2013-05-24 04:11:00,55.9,53.6,29.65,NE,49,1.0,1.0,92,0.00,,,0.03,0,Wunderground v.1.15,2013-05-24 08:11:00,
2013-05-24 04:17:00,55.3,53.0,29.65,NNE,17,1.0,1.0,92,0.05,,,0.04,0,Wunderground v.1.15,2013-05-24 08:17:00,
2013-05-24 04:23:00,54.8,52.5,29.65,SSE,168,1.0,1.0,92,0.05,,,0.04,0,Wunderground v.1.15,2013-05-24 08:23:00,
2013-05-24 04:28:00,54.5,52.2,29.65,East,91,1.0,2.0,92,0.04,,,0.04,0,Wunderground v.1.15,2013-05-24 08:28:00,
2013-05-24 04:34:00,53.9,51.6,29.66,NE,39,0.0,3.0,92,0.00,,,0.04,0,Wunderground v.1.15,2013-05-24 08:34:00,
2013-05-24 04:41:00,53.3,51.0,29.66,NE,41,1.0,1.0,92,0.00,,,0.05,0,Wunderground v.1.15,2013-05-24 08:41:00,
2013-05-24 04:46:00,53.2,50.9,29.67,NE,41,0.0,1.0,92,0.00,,,0.05,0,Wunderground v.1.15,2013-05-24 08:46:00,
2013-05-24 04:51:00,52.9,50.6,29.67,SSE,149,0.0,0.0,92,0.05,,,0.06,0,Wunderground v.1.15,2013-05-24 08:51:00,
2013-05-24 04:57:00,52.5,50.2,29.67,NNE,15,0.0,3.0,92,0.05,,,0.06,0,Wunderground v.1.15,2013-05-24 08:57:00,
2013-05-24 05:03:00,52.3,50.0,29.67,ENE,75,0.0,2.0,92,0.04,,,0.06,0,Wunderground v.1.15,2013-05-24 09:03:00,
2013-05-24 05:08:00,52.0,49.7,29.67,North,0,1.0,2.0,92,0.00,,,0.06,0,Wunderground v.1.15,2013-05-24 09:08:00,
2013-05-24 05:13:00,51.9,49.6,29.67,SE,131,1.0,2.0,92,0.00,,,0.07,0,Wunderground v.1.15,2013-05-24 09:13:00,
2013-05-24 05:19:00,51.9,49.9,29.67,SSE,162,1.0,3.0,93,0.00,,,0.07,0,Wunderground v.1.15,2013-05-24 09:19:00,
2013-05-24 05:24:00,51.7,49.5,29.67,ESE,119,1.0,1.0,92,0.05,,,0.08,0,Wunderground v.1.15,2013-05-24 09:24:00,
2013-05-24 05:31:00,51.7,49.7,29.67,NE,56,1.0,1.0,93,0.05,,,0.08,0,Wunderground v.1.15,2013-05-24 09:31:00,
2013-05-24 05:36:00,51.7,49.7,29.67,North,8,1.0,3.0,93,0.04,,,0.08,0,Wunderground v.1.15,2013-05-24 09:36:00,
2013-05-24 05:41:00,51.7,49.7,29.67,NNW,330,1.0,1.0,93,0.00,,,0.08,0,Wunderground v.1.15,2013-05-24 09:41:00,
2013-05-24 05:47:00,51.7,49.7,29.68,ESE,117,1.0,1.0,93,0.00,,,0.09,0,Wunderground v.1.15,2013-05-24 09:47:00,
2013-05-24 05:52:00,51.6,49.6,29.68,ESE,114,0.0,1.0,93,0.00,,,0.09,0,Wunderground v.1.15,2013-05-24 09:52:00,
2013-05-24 05:58:00,51.3,49.3,29.68,ESE,111,0.0,1.0,93,0.00,,,0.09,5,Wunderground v.1.15,2013-05-24 09:58:00,
2013-05-24 06:04:00,51.3,49.3,29.69,North,349,1.0,2.0,93,0.04,,,0.10,0,Wunderground v.1.15,2013-05-24 10:04:00,
2013-05-24 06:09:00,51.1,49.1,29.69,East,91,1.0,2.0,93,0.04,,,0.10,0,Wunderground v.1.15,2013-05-24 10:09:00,
2013-05-24 06:16:00,51.0,49.0,29.70,SE,129,0.0,3.0,93,0.04,,,0.10,0,Wunderground v.1.15,2013-05-24 10:16:00,
2013-05-24 06:21:00,50.8,48.8,29.70,NW,326,0.0,0.0,93,0.00,,,0.10,0,Wunderground v.1.15,2013-05-24 10:21:00,
2013-05-24 06:27:00,50.5,48.6,29.70,NE,53,0.0,3.0,93,0.00,,,0.10,5,Wunderground v.1.15,2013-05-24 10:27:00,
2013-05-24 06:32:00,50.4,48.5,29.71,WNW,293,0.0,3.0,93,0.00,,,0.10,7,Wunderground v.1.15,2013-05-24 10:32:00,
2013-05-24 06:38:00,50.2,48.3,29.71,SSW,203,1.0,3.0,93,0.00,,,0.10,9,Wunderground v.1.15,2013-05-24 10:38:00,
2013-05-24 06:43:00,50.2,48.3,29.71,ESE,118,1.0,1.0,93,0.00,,,0.11,9,Wunderground v.1.15,2013-05-24 10:43:00,
2013-05-24 06:49:00,50.1,48.2,29.71,ESE,117,0.0,1.0,93,0.00,,,0.11,14,Wunderground v.1.15,2013-05-24 10:49:00,
2013-05-24 06:55:00,49.9,48.0,29.71,SSW,208,0.0,0.0,93,0.00,,,0.11,14,Wunderground v.1.15,2013-05-24 10:55:00,
2013-05-24 07:01:00,49.8,47.9,29.72,ENE,72,0.0,0.0,93,0.00,,,0.12,18,Wunderground v.1.15,2013-05-24 11:01:00,
2013-05-24 07:06:00,49.8,47.9,29.72,East,87,1.0,2.0,93,0.00,,,0.12,18,Wunderground v.1.15,2013-05-24 11:06:00,
2013-05-24 07:11:00,49.6,47.7,29.72,ESE,123,1.0,1.0,93,0.00,,,0.12,18,Wunderground v.1.15,2013-05-24 11:11:00,
2013-05-24 07:17:00,49.8,47.9,29.72,ESE,119,0.0,1.0,93,0.00,,,0.12,23,Wunderground v.1.15,2013-05-24 11:17:00,
2013-05-24 07:22:00,49.6,47.7,29.72,ESE,119,0.0,0.0,93,0.00,,,0.12,26,Wunderground v.1.15,2013-05-24 11:22:00,
2013-05-24 07:28:00,49.6,47.7,29.72,ESE,119,0.0,0.0,93,0.00,,,0.12,28,Wunderground v.1.15,2013-05-24 11:28:00,
2013-05-24 07:34:00,49.6,47.7,29.74,ESE,119,0.0,0.0,93,0.00,,,0.12,28,Wunderground v.1.15,2013-05-24 11:34:00,
2013-05-24 07:40:00,49.5,47.6,29.74,South,178,0.0,1.0,93,0.00,,,0.12,21,Wunderground v.1.15,2013-05-24 11:40:00,
2013-05-24 07:46:00,49.4,47.5,29.75,North,0,0.0,2.0,93,0.00,,,0.12,25,Wunderground v.1.15,2013-05-24 11:46:00,
2013-05-24 07:51:00,48.9,47.0,29.75,ENE,63,1.0,2.0,93,0.00,,,0.12,26,Wunderground v.1.15,2013-05-24 11:51:00,
2013-05-24 07:57:00,48.6,46.7,29.75,East,85,1.0,2.0,93,0.00,,,0.13,33,Wunderground v.1.15,2013-05-24 11:57:00,
2013-05-24 08:03:00,48.5,46.6,29.76,SSW,200,1.0,2.0,93,0.00,,,0.13,47,Wunderground v.1.15,2013-05-24 12:03:00,
2013-05-24 08:09:00,48.5,46.6,29.76,East,100,0.0,2.0,93,0.00,,,0.13,63,Wunderground v.1.15,2013-05-24 12:09:00,
2013-05-24 08:15:00,48.3,46.4,29.77,South,190,1.0,5.0,93,0.00,,,0.13,56,Wunderground v.1.15,2013-05-24 12:15:00,
2013-05-24 08:21:00,48.3,46.4,29.77,NE,34,1.0,1.0,93,0.00,,,0.13,56,Wunderground v.1.15,2013-05-24 12:21:00,
2013-05-24 08:26:00,48.2,46.3,29.77,WSW,246,1.0,1.0,93,0.00,,,0.13,47,Wunderground v.1.15,2013-05-24 12:26:00,
2013-05-24 08:32:00,48.2,46.3,29.79,North,9,0.0,1.0,93,0.00,,,0.13,30,Wunderground v.1.15,2013-05-24 12:32:00,
2013-05-24 08:38:00,48.0,46.1,29.79,SSW,207,1.0,3.0,93,0.00,,,0.13,39,Wunderground v.1.15,2013-05-24 12:38:00,
2013-05-24 08:44:00,47.9,46.0,29.79,SSW,212,1.0,1.0,93,0.00,,,0.13,40,Wunderground v.1.15,2013-05-24 12:44:00,
2013-05-24 08:49:00,48.0,46.1,29.79,NNE,20,1.0,1.0,93,0.00,,,0.13,40,Wunderground v.1.15,2013-05-24 12:49:00,
2013-05-24 08:56:00,47.9,45.7,29.79,South,188,0.0,2.0,92,0.00,,,0.13,46,Wunderground v.1.15,2013-05-24 12:56:00,
2013-05-24 09:01:00,47.9,45.7,29.80,NE,53,1.0,1.0,92,0.00,,,0.13,49,Wunderground v.1.15,2013-05-24 13:01:00,
2013-05-24 09:07:00,47.7,45.5,29.80,SSW,197,1.0,2.0,92,0.00,,,0.13,54,Wunderground v.1.15,2013-05-24 13:07:00,
2013-05-24 09:12:00,47.6,45.4,29.80,NNE,13,1.0,1.0,92,0.00,,,0.13,39,Wunderground v.1.15,2013-05-24 13:12:00,
2013-05-24 09:17:00,47.4,45.2,29.81,SW,219,0.0,1.0,92,0.00,,,0.14,51,Wunderground v.1.15,2013-05-24 13:17:00,
2013-05-24 09:23:00,47.3,45.1,29.81,WSW,245,0.0,0.0,92,0.00,,,0.14,76,Wunderground v.1.15,2013-05-24 13:23:00,
2013-05-24 09:28:00,47.0,44.8,29.81,NNE,29,0.0,0.0,92,0.00,,,0.14,81,Wunderground v.1.15,2013-05-24 13:28:00,
2013-05-24 09:34:00,46.8,44.6,29.81,North,0,0.0,2.0,92,0.00,,,0.15,77,Wunderground v.1.15,2013-05-24 13:34:00,
2013-05-24 09:41:00,46.8,44.6,29.81,North,0,0.0,0.0,92,0.07,,,0.16,95,Wunderground v.1.15,2013-05-24 13:41:00,
2013-05-24 09:46:00,47.0,45.1,29.82,North,0,0.0,2.0,93,0.07,,,0.16,98,Wunderground v.1.15,2013-05-24 13:46:00,
2013-05-24 09:51:00,47.0,44.8,29.82,West,262,0.0,0.0,92,0.05,,,0.16,107,Wunderground v.1.15,2013-05-24 13:51:00,
2013-05-24 09:57:00,47.0,44.8,29.82,SE,130,0.0,6.0,92,0.00,,,0.16,135,Wunderground v.1.15,2013-05-24 13:57:00,
2013-05-24 10:03:00,47.0,44.8,29.83,SE,146,1.0,1.0,92,0.00,,,0.17,109,Wunderground v.1.15,2013-05-24 14:03:00,
2013-05-24 10:08:00,47.1,45.2,29.83,SW,222,1.0,1.0,93,0.06,,,0.18,179,Wunderground v.1.15,2013-05-24 14:08:00,
2013-05-24 10:14:00,47.4,45.5,29.84,SSW,193,0.0,0.0,93,0.06,,,0.18,116,Wunderground v.1.15,2013-05-24 14:14:00,
2013-05-24 10:20:00,47.6,45.7,29.84,SE,136,0.0,0.0,93,0.05,,,0.18,81,Wunderground v.1.15,2013-05-24 14:20:00,
2013-05-24 10:26:00,47.3,45.1,29.84,NW,320,0.0,2.0,92,0.00,,,0.18,116,Wunderground v.1.15,2013-05-24 14:26:00,
2013-05-24 10:31:00,47.0,44.8,29.84,NNE,20,0.0,0.0,92,0.00,,,0.19,116,Wunderground v.1.15,2013-05-24 14:31:00,
2013-05-24 10:37:00,46.8,44.6,29.84,NW,323,0.0,2.0,92,0.06,,,0.20,95,Wunderground v.1.15,2013-05-24 14:37:00,
2013-05-24 10:42:00,46.7,44.5,29.84,West,263,0.0,0.0,92,0.06,,,0.20,139,Wunderground v.1.15,2013-05-24 14:42:00,
2013-05-24 10:48:00,46.7,44.5,29.85,East,82,0.0,5.0,92,0.05,,,0.20,116,Wunderground v.1.15,2013-05-24 14:48:00,
2013-05-24 10:54:00,46.4,44.2,29.85,South,177,1.0,1.0,92,0.00,,,0.20,81,Wunderground v.1.15,2013-05-24 14:54:00,
2013-05-24 11:00:00,46.2,44.0,29.85,SSE,165,1.0,2.0,92,0.00,,,0.21,70,Wunderground v.1.15,2013-05-24 15:00:00,
2013-05-24 11:06:00,46.0,43.8,29.85,South,171,1.0,2.0,92,0.00,,,0.21,70,Wunderground v.1.15,2013-05-24 15:06:00,
2013-05-24 11:11:00,45.8,43.6,29.85,SSE,150,0.0,1.0,92,0.05,,,0.22,47,Wunderground v.1.15,2013-05-24 15:11:00,
2013-05-24 11:17:00,46.0,44.1,29.86,SSW,206,0.0,3.0,93,0.05,,,0.22,67,Wunderground v.1.15,2013-05-24 15:17:00,
2013-05-24 11:22:00,45.8,43.6,29.86,WSW,252,0.0,0.0,92,0.04,,,0.22,72,Wunderground v.1.15,2013-05-24 15:22:00,
2013-05-24 11:28:00,45.7,43.5,29.86,North,349,0.0,2.0,92,0.00,,,0.22,86,Wunderground v.1.15,2013-05-24 15:28:00,
2013-05-24 11:34:00,45.7,43.5,29.85,ESE,106,0.0,2.0,92,0.00,,,0.22,97,Wunderground v.1.15,2013-05-24 15:34:00,
2013-05-24 11:40:00,45.8,43.6,29.85,NE,53,0.0,0.0,92,0.00,,,0.23,95,Wunderground v.1.15,2013-05-24 15:40:00,
2013-05-24 11:46:00,46.0,44.1,29.86,NE,54,0.0,0.0,93,0.00,,,0.23,93,Wunderground v.1.15,2013-05-24 15:46:00,
2013-05-24 11:51:00,46.1,44.2,29.86,East,86,0.0,0.0,93,0.00,,,0.23,102,Wunderground v.1.15,2013-05-24 15:51:00,
2013-05-24 11:57:00,46.1,44.2,29.86,SW,217,1.0,3.0,93,0.00,,,0.24,72,Wunderground v.1.15,2013-05-24 15:57:00,
2013-05-24 12:02:00,46.0,43.8,29.87,ESE,122,1.0,1.0,92,0.00,,,0.24,76,Wunderground v.1.15,2013-05-24 16:02:00,
2013-05-24 12:08:00,46.1,44.2,29.87,East,101,0.0,1.0,93,0.00,,,0.24,88,Wunderground v.1.15,2013-05-24 16:08:00,
2013-05-24 12:13:00,46.1,43.9,29.87,NW,317,0.0,0.0,92,0.00,,,0.24,93,Wunderground v.1.15,2013-05-24 16:13:00,
2013-05-24 12:18:00,46.0,44.1,29.88,East,94,0.0,2.0,93,0.00,,,0.24,95,Wunderground v.1.15,2013-05-24 16:18:00,
2013-05-24 12:24:00,46.0,43.8,29.88,East,81,1.0,4.0,92,0.00,,,0.24,107,Wunderground v.1.15,2013-05-24 16:24:00,
2013-05-24 12:31:00,46.0,43.8,29.89,SW,224,1.0,1.0,92,0.00,,,0.24,153,Wunderground v.1.15,2013-05-24 16:31:00,
2013-05-24 12:36:00,46.1,44.2,29.89,SW,224,0.0,1.0,93,0.00,,,0.24,69,Wunderground v.1.15,2013-05-24 16:36:00,
2013-05-24 12:41:00,46.2,44.3,29.89,SE,134,0.0,0.0,93,0.00,,,0.24,49,Wunderground v.1.15,2013-05-24 16:41:00,
2013-05-24 12:47:00,46.2,44.0,29.89,East,90,0.0,2.0,92,0.00,,,0.24,86,Wunderground v.1.15,2013-05-24 16:47:00,
2013-05-24 12:53:00,46.0,43.8,29.89,NE,46,1.0,1.0,92,0.00,,,0.25,116,Wunderground v.1.15,2013-05-24 16:53:00,
2013-05-24 12:58:00,45.8,43.6,29.89,NNW,344,1.0,2.0,92,0.00,,,0.25,97,Wunderground v.1.15,2013-05-24 16:58:00,
2013-05-24 13:04:00,45.7,43.5,29.89,South,184,1.0,4.0,92,0.00,,,0.25,139,Wunderground v.1.15,2013-05-24 17:04:00,
2013-05-24 13:10:00,45.7,43.5,29.89,SW,235,1.0,1.0,92,0.00,,,0.25,91,Wunderground v.1.15,2013-05-24 17:10:00,
2013-05-24 13:16:00,45.5,43.3,29.89,NNE,18,0.0,1.0,92,0.00,,,0.26,139,Wunderground v.1.15,2013-05-24 17:16:00,
2013-05-24 13:21:00,45.8,43.9,29.89,East,79,0.0,2.0,93,0.00,,,0.26,181,Wunderground v.1.15,2013-05-24 17:21:00,
2013-05-24 13:27:00,46.1,44.2,29.89,East,79,0.0,2.0,93,0.00,,,0.26,135,Wunderground v.1.15,2013-05-24 17:27:00,
2013-05-24 13:33:00,46.2,44.0,29.89,ENE,72,0.0,1.0,92,0.00,,,0.26,155,Wunderground v.1.15,2013-05-24 17:33:00,
2013-05-24 13:38:00,46.0,43.8,29.89,ENE,63,0.0,1.0,92,0.00,,,0.26,95,Wunderground v.1.15,2013-05-24 17:38:00,
2013-05-24 13:44:00,45.8,43.6,29.90,NE,56,0.0,1.0,92,0.00,,,0.26,174,Wunderground v.1.15,2013-05-24 17:44:00,
2013-05-24 13:50:00,46.1,43.9,29.90,ENE,69,0.0,0.0,92,0.00,,,0.26,211,Wunderground v.1.15,2013-05-24 17:50:00,
2013-05-24 13:56:00,46.1,44.2,29.90,East,83,0.0,0.0,93,0.00,,,0.27,186,Wunderground v.1.15,2013-05-24 17:56:00,
2013-05-24 14:01:00,46.2,44.0,29.90,SE,146,0.0,1.0,92,0.00,,,0.27,137,Wunderground v.1.15,2013-05-24 18:01:00,
2013-05-24 14:06:00,46.2,44.0,29.90,ESE,122,0.0,1.0,92,0.05,,,0.28,176,Wunderground v.1.15,2013-05-24 18:06:00,
2013-05-24 14:11:00,46.0,43.8,29.90,ESE,114,1.0,3.0,92,0.05,,,0.28,116,Wunderground v.1.15,2013-05-24 18:11:00,
2013-05-24 14:17:00,45.7,43.5,29.90,SSW,206,0.0,3.0,92,0.05,,,0.28,167,Wunderground v.1.15,2013-05-24 18:17:00,
2013-05-24 14:22:00,45.8,43.6,29.90,ENE,77,0.0,3.0,92,0.04,,,0.28,185,Wunderground v.1.15,2013-05-24 18:22:00,
2013-05-24 14:28:00,45.8,43.6,29.90,WSW,243,1.0,3.0,92,0.00,,,0.28,156,Wunderground v.1.15,2013-05-24 18:28:00,
2013-05-24 14:34:00,46.0,43.8,29.90,East,87,1.0,1.0,92,0.00,,,0.29,183,Wunderground v.1.15,2013-05-24 18:34:00,
2013-05-24 14:39:00,46.0,43.8,29.90,SSW,200,0.0,3.0,92,0.00,,,0.29,234,Wunderground v.1.15,2013-05-24 18:39:00,
2013-05-24 14:45:00,46.1,43.9,29.92,ESE,111,0.0,1.0,92,0.00,,,0.29,199,Wunderground v.1.15,2013-05-24 18:45:00,
2013-05-24 14:51:00,45.8,43.6,29.92,WNW,295,1.0,1.0,92,0.00,,,0.29,183,Wunderground v.1.15,2013-05-24 18:51:00,
2013-05-24 14:56:00,45.8,43.6,29.92,NNE,14,1.0,1.0,92,0.00,,,0.30,135,Wunderground v.1.15,2013-05-24 18:56:00,
2013-05-24 15:02:00,45.7,43.5,29.92,SSE,165,1.0,1.0,92,0.00,,,0.30,79,Wunderground v.1.15,2013-05-24 19:02:00,
2013-05-24 15:07:00,45.7,43.5,29.92,South,176,1.0,2.0,92,0.00,,,0.30,56,Wunderground v.1.15,2013-05-24 19:07:00,
2013-05-24 15:13:00,45.5,43.3,29.92,SSW,193,0.0,1.0,92,0.00,,,0.30,76,Wunderground v.1.15,2013-05-24 19:13:00,
2013-05-24 15:18:00,45.4,42.9,29.91,East,101,0.0,1.0,91,0.00,,,0.30,69,Wunderground v.1.15,2013-05-24 19:18:00,
2013-05-24 15:24:00,45.1,42.6,29.91,SSW,201,0.0,1.0,91,0.00,,,0.30,142,Wunderground v.1.15,2013-05-24 19:24:00,
2013-05-24 15:29:00,45.2,43.0,29.91,North,356,1.0,1.0,92,0.00,,,0.30,193,Wunderground v.1.15,2013-05-24 19:29:00,
2013-05-24 15:36:00,45.5,43.3,29.91,NE,39,1.0,4.0,92,0.00,,,0.30,105,Wunderground v.1.15,2013-05-24 19:36:00,
2013-05-24 15:41:00,45.5,43.3,29.91,North,351,1.0,1.0,92,0.00,,,0.30,74,Wunderground v.1.15,2013-05-24 19:41:00,
2013-05-24 15:46:00,45.4,43.2,29.92,SSW,210,1.0,2.0,92,0.00,,,0.30,56,Wunderground v.1.15,2013-05-24 19:46:00,
2013-05-24 15:52:00,45.1,42.9,29.92,SW,230,1.0,6.0,92,0.00,,,0.30,47,Wunderground v.1.15,2013-05-24 19:52:00,
2013-05-24 15:57:00,44.9,42.7,29.92,ENE,67,1.0,6.0,92,0.00,,,0.30,60,Wunderground v.1.15,2013-05-24 19:57:00,
2013-05-24 16:03:00,44.6,42.1,29.92,ENE,65,1.0,2.0,91,0.00,,,0.30,46,Wunderground v.1.15,2013-05-24 20:03:00,
2013-05-24 16:09:00,44.6,42.4,29.92,NNW,347,1.0,2.0,92,0.00,,,0.30,56,Wunderground v.1.15,2013-05-24 20:09:00,
2013-05-24 16:14:00,44.6,42.1,29.93,SSW,201,1.0,3.0,91,0.00,,,0.30,65,Wunderground v.1.15,2013-05-24 20:14:00,
2013-05-24 16:19:00,44.5,42.3,29.93,WNW,285,1.0,6.0,92,0.00,,,0.30,62,Wunderground v.1.15,2013-05-24 20:19:00,
2013-05-24 16:24:00,44.5,42.3,29.93,ESE,114,1.0,4.0,92,0.00,,,0.30,86,Wunderground v.1.15,2013-05-24 20:24:00,
2013-05-24 16:31:00,44.6,42.4,29.93,NE,44,1.0,1.0,92,0.00,,,0.31,77,Wunderground v.1.15,2013-05-24 20:31:00,
2013-05-24 16:36:00,44.8,42.6,29.93,SE,124,1.0,5.0,92,0.00,,,0.31,74,Wunderground v.1.15,2013-05-24 20:36:00,
2013-05-24 16:42:00,44.9,42.7,29.93,South,181,1.0,4.0,92,0.00,,,0.31,49,Wunderground v.1.15,2013-05-24 20:42:00,
2013-05-24 16:47:00,44.9,42.7,29.94,East,91,1.0,4.0,92,0.00,,,0.31,30,Wunderground v.1.15,2013-05-24 20:47:00,
2013-05-24 16:53:00,44.9,42.7,29.94,SSW,213,1.0,5.0,92,0.00,,,0.32,39,Wunderground v.1.15,2013-05-24 20:53:00,
2013-05-24 16:58:00,44.9,42.7,29.94,SE,130,0.0,5.0,92,0.00,,,0.32,35,Wunderground v.1.15,2013-05-24 20:58:00,
2013-05-24 17:04:00,44.6,42.4,29.94,NE,46,1.0,10.0,92,0.00,,,0.32,54,Wunderground v.1.15,2013-05-24 21:04:00,
2013-05-24 17:10:00,44.3,42.1,29.94,SSW,213,1.0,1.0,92,0.00,,,0.32,54,Wunderground v.1.15,2013-05-24 21:10:00,
2013-05-24 17:15:00,44.2,42.0,29.95,NNE,32,1.0,2.0,92,0.00,,,0.33,47,Wunderground v.1.15,2013-05-24 21:15:00,
2013-05-24 17:21:00,44.2,42.0,29.95,North,11,1.0,1.0,92,0.00,,,0.33,53,Wunderground v.1.15,2013-05-24 21:21:00,
2013-05-24 17:26:00,44.1,41.9,29.95,NNE,12,1.0,2.0,92,0.00,,,0.33,37,Wunderground v.1.15,2013-05-24 21:26:00,
2013-05-24 17:32:00,44.1,41.9,29.95,SSW,205,1.0,2.0,92,0.05,,,0.34,46,Wunderground v.1.15,2013-05-24 21:32:00,
2013-05-24 17:37:00,44.2,42.0,29.95,SSE,155,1.0,2.0,92,0.05,,,0.34,44,Wunderground v.1.15,2013-05-24 21:37:00,
2013-05-24 17:43:00,44.3,42.1,29.95,South,184,0.0,4.0,92,0.04,,,0.34,33,Wunderground v.1.15,2013-05-24 21:43:00,
2013-05-24 17:49:00,44.3,42.1,29.95,South,184,0.0,4.0,92,0.00,,,0.35,35,Wunderground v.1.15,2013-05-24 21:49:00,
2013-05-24 17:54:00,44.6,42.4,29.95,East,98,0.0,2.0,92,0.00,,,0.35,28,Wunderground v.1.15,2013-05-24 21:54:00,
2013-05-24 18:01:00,44.5,42.3,29.94,SSW,212,1.0,1.0,92,0.00,,,0.35,23,Wunderground v.1.15,2013-05-24 22:01:00,
2013-05-24 18:06:00,44.5,42.3,29.94,East,87,1.0,1.0,92,0.05,,,0.36,18,Wunderground v.1.15,2013-05-24 22:06:00,
2013-05-24 18:11:00,44.5,42.3,29.94,East,85,0.0,0.0,92,0.05,,,0.36,19,Wunderground v.1.15,2013-05-24 22:11:00,
2013-05-24 18:16:00,44.5,42.3,29.94,ENE,74,0.0,0.0,92,0.04,,,0.36,30,Wunderground v.1.15,2013-05-24 22:16:00,
2013-05-24 18:22:00,44.5,42.3,29.94,ENE,68,0.0,2.0,92,0.00,,,0.36,21,Wunderground v.1.15,2013-05-24 22:22:00,
2013-05-24 18:27:00,44.3,42.1,29.94,East,91,0.0,2.0,92,0.00,,,0.37,21,Wunderground v.1.15,2013-05-24 22:27:00,
2013-05-24 18:33:00,44.3,42.1,29.94,NE,39,0.0,1.0,92,0.00,,,0.37,25,Wunderground v.1.15,2013-05-24 22:33:00,
2013-05-24 18:39:00,44.3,42.1,29.94,NNE,31,0.0,1.0,92,0.05,,,0.38,28,Wunderground v.1.15,2013-05-24 22:39:00,
2013-05-24 18:44:00,44.3,42.1,29.95,NE,37,1.0,3.0,92,0.05,,,0.38,21,Wunderground v.1.15,2013-05-24 22:44:00,
2013-05-24 18:51:00,44.3,42.4,29.95,SE,134,0.0,0.0,93,0.04,,,0.38,23,Wunderground v.1.15,2013-05-24 22:51:00,
2013-05-24 18:56:00,44.3,42.4,29.95,SE,134,0.0,0.0,93,0.00,,,0.38,18,Wunderground v.1.15,2013-05-24 22:56:00,
2013-05-24 19:01:00,44.2,42.0,29.95,North,0,0.0,2.0,92,0.00,,,0.39,21,Wunderground v.1.15,2013-05-24 23:01:00,
2013-05-24 19:07:00,44.2,42.3,29.95,ESE,118,1.0,2.0,93,0.00,,,0.39,16,Wunderground v.1.15,2013-05-24 23:07:00,
2013-05-24 19:13:00,44.2,42.0,29.95,ENE,70,0.0,1.0,92,0.05,,,0.40,9,Wunderground v.1.15,2013-05-24 23:13:00,
2013-05-24 19:18:00,44.2,42.3,29.95,South,169,0.0,1.0,93,0.05,,,0.40,7,Wunderground v.1.15,2013-05-24 23:18:00,
2013-05-24 19:24:00,44.2,42.3,29.95,ESE,110,0.0,1.0,93,0.04,,,0.40,7,Wunderground v.1.15,2013-05-24 23:24:00,
2013-05-24 19:31:00,44.2,42.3,29.96,NNE,20,0.0,2.0,93,0.00,,,0.40,0,Wunderground v.1.15,2013-05-24 23:31:00,
2013-05-24 19:36:00,44.2,42.3,29.96,WSW,248,0.0,3.0,93,0.00,,,0.41,5,Wunderground v.1.15,2013-05-24 23:36:00,
2013-05-24 19:41:00,44.1,41.9,29.96,SW,219,1.0,1.0,92,0.00,,,0.41,0,Wunderground v.1.15,2013-05-24 23:41:00,
2013-05-24 19:47:00,44.1,41.9,29.96,SW,220,1.0,2.0,92,0.04,,,0.42,0,Wunderground v.1.15,2013-05-24 23:47:00,
2013-05-24 19:52:00,44.1,41.9,29.96,East,96,0.0,0.0,92,0.04,,,0.42,0,Wunderground v.1.15,2013-05-24 23:52:00,
2013-05-24 19:58:00,44.1,41.9,29.96,SW,217,1.0,4.0,92,0.04,,,0.42,0,Wunderground v.1.15,2013-05-24 23:58:00,
2013-05-24 20:04:00,44.1,41.9,29.96,North,0,1.0,1.0,92,0.00,,,0.42,0,Wunderground v.1.15,2013-05-25 00:04:00,
2013-05-24 20:09:00,44.1,41.9,29.96,West,276,0.0,3.0,92,0.00,,,0.42,0,Wunderground v.1.15,2013-05-25 00:09:00,
2013-05-24 20:16:00,44.1,41.9,29.96,North,2,0.0,0.0,92,0.00,,,0.43,0,Wunderground v.1.15,2013-05-25 00:16:00,
2013-05-24 20:21:00,44.1,41.9,29.96,North,6,0.0,0.0,92,0.00,,,0.43,0,Wunderground v.1.15,2013-05-25 00:21:00,
2013-05-24 20:27:00,44.1,41.9,29.96,SSW,201,0.0,2.0,92,0.04,,,0.44,0,Wunderground v.1.15,2013-05-25 00:27:00,
2013-05-24 20:32:00,43.9,41.7,29.95,East,82,0.0,1.0,92,0.04,,,0.44,0,Wunderground v.1.15,2013-05-25 00:32:00,
2013-05-24 20:38:00,44.1,41.9,29.95,East,91,1.0,3.0,92,0.04,,,0.44,0,Wunderground v.1.15,2013-05-25 00:38:00,
2013-05-24 20:44:00,44.1,41.9,29.97,ESE,117,0.0,2.0,92,0.00,,,0.44,0,Wunderground v.1.15,2013-05-25 00:44:00,
2013-05-24 20:49:00,44.1,41.9,29.97,East,94,0.0,2.0,92,0.00,,,0.44,0,Wunderground v.1.15,2013-05-25 00:49:00,
2013-05-24 20:55:00,44.1,41.9,29.97,East,98,0.0,0.0,92,0.00,,,0.45,0,Wunderground v.1.15,2013-05-25 00:55:00,
2013-05-24 21:01:00,44.1,41.9,29.97,East,96,0.0,0.0,92,0.00,,,0.45,0,Wunderground v.1.15,2013-05-25 01:01:00,
2013-05-24 21:06:00,44.1,41.9,29.97,East,96,0.0,0.0,92,0.04,,,0.46,0,Wunderground v.1.15,2013-05-25 01:06:00,
2013-05-24 21:11:00,44.2,42.3,29.97,East,94,0.0,0.0,93,0.04,,,0.46,0,Wunderground v.1.15,2013-05-25 01:11:00,
2013-05-24 21:17:00,44.2,42.3,29.96,SSE,153,0.0,3.0,93,0.04,,,0.46,0,Wunderground v.1.15,2013-05-25 01:17:00,
2013-05-24 21:22:00,44.3,42.4,29.96,SSE,153,0.0,0.0,93,0.04,,,0.46,0,Wunderground v.1.15,2013-05-25 01:22:00,
2013-05-24 21:28:00,44.3,42.4,29.96,SW,218,0.0,0.0,93,0.00,,,0.46,0,Wunderground v.1.15,2013-05-25 01:28:00,
2013-05-24 21:34:00,44.3,42.4,29.96,SE,138,0.0,0.0,93,0.00,,,0.47,0,Wunderground v.1.15,2013-05-25 01:34:00,
2013-05-24 21:39:00,44.3,42.4,29.96,SSW,198,0.0,3.0,93,0.00,,,0.47,0,Wunderground v.1.15,2013-05-25 01:39:00,
2013-05-24 21:45:00,44.2,42.3,29.97,NE,47,0.0,2.0,93,0.04,,,0.48,0,Wunderground v.1.15,2013-05-25 01:45:00,
2013-05-24 21:51:00,44.2,42.3,29.97,East,87,0.0,1.0,93,0.04,,,0.48,0,Wunderground v.1.15,2013-05-25 01:51:00,
2013-05-24 21:56:00,44.2,42.3,29.97,North,350,0.0,1.0,93,0.04,,,0.48,0,Wunderground v.1.15,2013-05-25 01:56:00,
2013-05-24 22:02:00,44.2,42.3,29.99,NNE,22,0.0,0.0,93,0.04,,,0.48,0,Wunderground v.1.15,2013-05-25 02:02:00,
2013-05-24 22:07:00,44.2,42.3,29.99,NNE,19,0.0,1.0,93,0.00,,,0.48,0,Wunderground v.1.15,2013-05-25 02:07:00,
2013-05-24 22:13:00,44.3,42.4,29.99,North,2,0.0,1.0,93,0.00,,,0.49,0,Wunderground v.1.15,2013-05-25 02:13:00,
2013-05-24 22:18:00,44.3,42.4,29.98,North,8,0.0,2.0,93,0.00,,,0.49,0,Wunderground v.1.15,2013-05-25 02:18:00,
2013-05-24 22:24:00,44.3,42.4,29.98,East,94,0.0,0.0,93,0.05,,,0.50,0,Wunderground v.1.15,2013-05-25 02:24:00,
2013-05-24 22:30:00,44.5,42.6,29.97,SW,233,0.0,0.0,93,0.05,,,0.50,0,Wunderground v.1.15,2013-05-25 02:30:00,
2013-05-24 22:36:00,44.5,42.6,29.97,SSW,206,0.0,2.0,93,0.05,,,0.50,0,Wunderground v.1.15,2013-05-25 02:36:00,
2013-05-24 22:41:00,44.5,42.6,29.97,East,89,0.0,0.0,93,0.00,,,0.50,0,Wunderground v.1.15,2013-05-25 02:41:00,
2013-05-24 22:47:00,44.3,42.4,29.97,North,1,0.0,0.0,93,0.00,,,0.51,0,Wunderground v.1.15,2013-05-25 02:47:00,
2013-05-24 22:52:00,44.5,42.6,29.97,North,1,0.0,0.0,93,0.00,,,0.51,0,Wunderground v.1.15,2013-05-25 02:52:00,
2013-05-24 22:58:00,44.3,42.4,29.97,South,169,0.0,5.0,93,0.06,,,0.52,0,Wunderground v.1.15,2013-05-25 02:58:00,
2013-05-24 23:04:00,44.3,42.4,29.97,South,169,0.0,1.0,93,0.06,,,0.52,0,Wunderground v.1.15,2013-05-25 03:04:00,
2013-05-24 23:09:00,44.3,42.4,29.97,South,169,0.0,1.0,93,0.04,,,0.52,0,Wunderground v.1.15,2013-05-25 03:09:00,
2013-05-24 23:16:00,44.3,42.4,29.97,South,169,0.0,1.0,93,0.00,,,0.52,0,Wunderground v.1.15,2013-05-25 03:16:00,
2013-05-24 23:21:00,44.3,42.4,29.97,South,169,0.0,0.0,93,0.00,,,0.53,0,Wunderground v.1.15,2013-05-25 03:21:00,
2013-05-24 23:27:00,44.3,42.4,29.97,South,169,0.0,0.0,93,0.00,,,0.53,0,Wunderground v.1.15,2013-05-25 03:27:00,
2013-05-24 23:32:00,44.3,42.4,29.98,SSW,200,0.0,1.0,93,0.05,,,0.54,0,Wunderground v.1.15,2013-05-25 03:32:00,
2013-05-24 23:38:00,44.3,42.4,29.98,SSW,200,0.0,1.0,93,0.05,,,0.54,0,Wunderground v.1.15,2013-05-25 03:38:00,
2013-05-24 23:43:00,44.3,42.4,29.98,NNW,345,0.0,1.0,93,0.04,,,0.54,0,Wunderground v.1.15,2013-05-25 03:43:00,
2013-05-24 23:49:00,44.3,42.4,29.97,SSW,199,1.0,2.0,93,0.00,,,0.54,0,Wunderground v.1.15,2013-05-25 03:49:00,
2013-05-24 23:54:00,44.5,42.6,29.97,ENE,65,1.0,1.0,93,0.00,,,0.55,0,Wunderground v.1.15,2013-05-25 03:54:00,